createdAt,value
2023-05-02T00:04:19.525Z,20.40
2023-05-02T00:09:23.559Z,18.20
2023-05-02T00:14:28.303Z,16.30
2023-05-02T00:19:31.551Z,15.30
2023-05-02T00:24:34.787Z,19.00
2023-05-02T00:29:38.232Z,18.30
2023-05-02T00:34:41.759Z,17.50
2023-05-02T00:40:08.398Z,16.10
2023-05-02T00:45:12.728Z,15.20
2023-05-02T00:50:18.104Z,15.90
2023-05-02T00:55:21.313Z,16.80
2023-05-02T01:00:31.646Z,12.30
2023-05-02T01:05:50.445Z,15.60
2023-05-02T01:11:13.312Z,15.50
2023-05-02T01:19:58.660Z,18.20
2023-05-02T01:25:21.190Z,16.10
2023-05-02T01:30:28.448Z,14.70
2023-05-02T01:35:36.003Z,16.70
2023-05-02T01:40:40.700Z,15.60
2023-05-02T01:45:45.994Z,15.20
2023-05-02T01:50:50.747Z,16.20
2023-05-02T01:55:55.854Z,19.10
2023-05-02T02:01:01.832Z,16.20
2023-05-02T02:06:06.896Z,15.60
2023-05-02T02:11:13.637Z,12.70
2023-05-02T02:16:24.947Z,15.20
2023-05-02T02:21:33.062Z,16.40
2023-05-02T02:26:37.852Z,14.90
2023-05-02T02:31:41.031Z,15.70
2023-05-02T02:36:51.406Z,16.30
2023-05-02T02:42:11.384Z,15.50
2023-05-02T02:47:42.945Z,15.90
2023-05-02T02:52:59.586Z,16.20
2023-05-02T02:58:17.830Z,16.40
2023-05-02T03:03:29.225Z,16.00
2023-05-02T03:08:50.658Z,17.00
2023-05-02T03:13:54.376Z,14.60
2023-05-02T03:18:58.615Z,16.90
2023-05-02T03:24:04.324Z,20.40
2023-05-02T03:29:08.398Z,20.20
2023-05-02T03:34:13.492Z,19.40
2023-05-02T03:39:17.613Z,18.30
2023-05-02T03:44:21.106Z,20.60
2023-05-02T03:49:24.329Z,17.80
2023-05-02T03:54:28.137Z,18.10
2023-05-02T03:59:35.651Z,16.80
2023-05-02T04:04:44.064Z,15.00
2023-05-02T04:09:50.413Z,17.60
2023-05-02T04:14:53.894Z,17.40
2023-05-02T04:20:03.152Z,22.10
2023-05-02T04:25:09.828Z,17.00
2023-05-02T04:30:16.111Z,18.30
2023-05-02T04:35:23.213Z,18.60
2023-05-02T04:40:26.576Z,19.40
2023-05-02T04:45:37.386Z,15.70
2023-05-02T04:50:46.754Z,16.90
2023-05-02T04:55:50.325Z,19.70
2023-05-02T05:00:55.008Z,17.60
2023-05-02T05:05:58.085Z,16.80
2023-05-02T05:11:02.419Z,20.60
2023-05-02T05:16:06.848Z,17.70
2023-05-02T05:21:11.538Z,14.80
2023-05-02T05:26:17.216Z,18.80
2023-05-02T05:31:25.107Z,16.40
2023-05-02T05:36:31.678Z,15.20
2023-05-02T05:41:36.064Z,18.10
2023-05-02T05:46:42.655Z,11.30
2023-05-02T05:51:47.995Z,8.70
2023-05-02T05:56:53.058Z,9.90
2023-05-02T06:01:57.804Z,7.60
2023-05-02T06:07:01.926Z,7.50
2023-05-02T06:12:06.362Z,7.90
2023-05-02T06:17:10.492Z,5.30
2023-05-02T06:22:14.300Z,9.30
2023-05-02T06:27:17.507Z,4.70
2023-05-02T06:32:21.999Z,4.20
2023-05-02T06:37:25.151Z,6.50
2023-05-02T06:42:28.380Z,8.30
2023-05-02T06:47:31.920Z,6.20
2023-05-02T06:52:35.708Z,8.40
2023-05-02T06:57:38.872Z,8.30
2023-05-02T07:02:42.285Z,6.90
2023-05-02T07:07:45.963Z,7.50
2023-05-02T07:12:49.175Z,8.60
2023-05-02T07:17:53.621Z,6.40
2023-05-02T07:22:57.102Z,6.60
2023-05-02T07:28:00.322Z,6.70
2023-05-02T07:33:03.574Z,5.50
2023-05-02T07:38:07.098Z,27.20
2023-05-02T07:43:11.277Z,8.60
2023-05-02T07:48:14.821Z,4.40
2023-05-02T07:53:18.267Z,3.80
2023-05-02T07:58:21.411Z,5.10
2023-05-02T08:03:24.759Z,12.20
2023-05-02T08:08:28.443Z,7.80
2023-05-02T08:13:31.660Z,4.60
2023-05-02T08:18:34.836Z,8.40
2023-05-02T08:23:38.077Z,4.10
2023-05-02T08:28:42.499Z,4.10
2023-05-02T08:33:48.519Z,5.20
2023-05-02T08:38:52.056Z,3.50
2023-05-02T08:43:56.734Z,3.80
2023-05-02T08:49:01.915Z,3.10
2023-05-02T08:54:10.003Z,4.80
2023-05-02T08:59:13.128Z,4.50
2023-05-02T09:04:18.574Z,5.10
2023-05-02T09:14:24.900Z,4.80
2023-05-02T09:19:28.768Z,4.60
2023-05-02T09:24:32.841Z,2.60
2023-05-02T09:29:36.537Z,4.10
2023-05-02T09:34:42.380Z,4.50
2023-05-02T09:40:06.735Z,6.30
2023-05-02T09:45:20.856Z,5.10
2023-05-02T09:50:38.097Z,4.20
2023-05-02T09:55:43.711Z,4.30
2023-05-02T10:00:47.034Z,5.50
2023-05-02T10:05:51.086Z,4.80
2023-05-02T10:10:56.782Z,4.50
2023-05-02T10:16:05.311Z,3.00
2023-05-02T10:25:19.652Z,3.50
2023-05-02T10:30:24.390Z,4.10
2023-05-02T10:35:31.858Z,6.80
2023-05-02T10:40:42.763Z,3.90
2023-05-02T10:45:45.995Z,3.00
2023-05-02T11:25:31.795Z,4.00
2023-05-02T11:30:37.706Z,4.10
2023-05-02T11:35:43.664Z,3.00
2023-05-02T11:40:55.182Z,2.70
2023-05-02T11:46:00.470Z,3.80
2023-05-02T11:56:10.952Z,4.50
2023-05-02T12:01:16.449Z,2.50
2023-05-02T12:06:20.500Z,4.10
2023-05-02T12:11:24.260Z,4.90
2023-05-02T12:16:27.601Z,4.10
2023-05-02T12:21:33.786Z,4.20
2023-05-02T12:26:37.022Z,2.10
2023-05-02T12:31:40.738Z,3.40
2023-05-02T12:36:45.603Z,2.50
2023-05-02T12:47:01.592Z,4.20
2023-05-02T12:52:05.276Z,3.50
2023-05-02T12:57:08.894Z,3.00
2023-05-02T13:02:12.972Z,3.10
2023-05-02T13:07:16.143Z,2.70
2023-05-02T13:12:19.340Z,6.40
2023-05-02T13:17:22.813Z,8.60
2023-05-02T13:22:26.708Z,7.00
2023-05-02T13:27:29.919Z,4.90
2023-05-02T13:32:33.127Z,3.70
2023-05-02T13:37:36.350Z,4.90
2023-05-02T13:42:39.346Z,7.30
2023-05-02T13:47:42.407Z,5.50
2023-05-02T13:52:47.726Z,8.50
2023-05-02T13:57:52.013Z,7.10
2023-05-02T14:02:55.774Z,5.50
2023-05-02T14:07:58.899Z,5.70
2023-05-02T14:13:02.068Z,4.40
2023-05-02T14:18:05.147Z,4.80
2023-05-02T14:23:08.550Z,3.40
2023-05-02T14:28:12.136Z,5.20
2023-05-02T14:33:15.505Z,5.20
2023-05-02T14:38:18.509Z,3.00
2023-05-02T14:43:21.683Z,3.70
2023-05-02T14:48:25.004Z,2.40
2023-05-02T14:53:28.175Z,3.40
2023-05-02T14:58:31.195Z,4.10
2023-05-02T15:03:36.378Z,2.30
2023-05-02T15:08:45.040Z,2.70
2023-05-02T15:13:48.047Z,2.50
2023-05-02T15:18:51.123Z,2.10
2023-05-02T15:23:54.166Z,2.00
2023-05-02T15:28:57.756Z,2.50
2023-05-02T15:34:00.789Z,3.80
2023-05-02T15:39:07.332Z,3.30
2023-05-02T15:44:11.076Z,3.50
2023-05-02T15:49:14.363Z,2.80
2023-05-02T15:54:17.435Z,4.40
2023-05-02T15:59:21.041Z,3.60
2023-05-02T16:04:25.366Z,2.50
2023-05-02T16:09:31.374Z,4.20
2023-05-02T16:14:34.940Z,4.10
2023-05-02T16:19:38.088Z,3.10
2023-05-02T16:24:41.437Z,4.90
2023-05-02T16:29:44.397Z,4.00
2023-05-02T16:34:47.356Z,5.00
2023-05-02T16:39:50.599Z,4.90
2023-05-02T16:44:53.712Z,5.70
2023-05-02T16:49:58.544Z,6.40
2023-05-02T16:55:01.623Z,4.70
2023-05-02T17:00:05.684Z,4.30
2023-05-02T17:05:10.802Z,5.60
2023-05-02T17:10:13.778Z,6.10
2023-05-02T17:15:16.862Z,5.70
2023-05-02T17:20:20.670Z,6.30
2023-05-02T17:25:28.168Z,4.90
2023-05-02T17:30:34.105Z,6.30
2023-05-02T17:35:37.184Z,5.50
2023-05-02T17:40:40.500Z,7.50
2023-05-02T17:45:45.082Z,8.00
2023-05-02T17:50:50.157Z,6.00
2023-05-02T17:55:53.289Z,7.40
2023-05-02T18:00:57.014Z,7.60
2023-05-02T18:05:59.945Z,7.00
2023-05-02T18:11:03.627Z,9.20
2023-05-02T18:16:06.866Z,8.30
2023-05-02T18:21:10.546Z,9.60
2023-05-02T18:26:14.192Z,8.40
2023-05-02T18:31:17.965Z,7.40
2023-05-02T18:36:26.186Z,7.40
2023-05-02T18:41:29.400Z,10.80
2023-05-02T18:46:32.446Z,8.80
2023-05-02T18:51:35.843Z,6.90
2023-05-02T18:56:38.825Z,7.90
2023-05-02T19:01:41.808Z,9.80
2023-05-02T19:06:45.306Z,10.40
2023-05-02T19:11:48.410Z,8.30
2023-05-02T19:16:51.578Z,7.50
2023-05-02T19:21:54.530Z,6.30
2023-05-02T19:26:57.948Z,5.40
2023-05-02T19:32:01.146Z,5.60
2023-05-02T19:37:04.447Z,6.10
2023-05-02T19:42:07.628Z,5.10
2023-05-02T19:47:11.174Z,6.20
2023-05-02T19:52:14.137Z,8.20
2023-05-02T19:57:18.020Z,7.10
2023-05-02T20:02:21.975Z,8.90
2023-05-02T20:07:24.993Z,9.50
2023-05-02T20:12:27.971Z,6.40
2023-05-02T20:25:34.415Z,7.70
2023-05-02T20:30:39.232Z,7.20
2023-05-02T20:35:42.285Z,6.60
2023-05-02T20:40:45.791Z,6.60
2023-05-02T20:45:49.134Z,5.90
2023-05-02T20:50:55.188Z,6.10
2023-05-02T20:55:58.209Z,7.20
2023-05-02T21:01:01.278Z,9.80
2023-05-02T21:06:04.505Z,5.60
2023-05-02T21:11:14.674Z,8.40
2023-05-02T21:16:19.131Z,7.30
2023-05-02T21:21:22.962Z,8.40
2023-05-02T21:26:26.370Z,6.60
2023-05-02T21:31:30.193Z,8.40
2023-05-02T21:36:33.256Z,7.70
2023-05-02T21:41:36.820Z,8.70
2023-05-02T21:46:41.074Z,7.50
2023-05-02T21:51:44.234Z,9.30
2023-05-02T21:56:47.248Z,9.20
2023-05-02T22:01:50.586Z,9.60
2023-05-02T22:06:53.969Z,13.90
2023-05-02T22:11:58.069Z,10.00
2023-05-02T22:17:04.881Z,9.30
2023-05-02T22:22:08.150Z,11.20
2023-05-02T22:27:11.151Z,10.60
2023-05-02T22:32:14.169Z,12.00
2023-05-02T22:37:17.320Z,10.90
2023-05-02T22:42:20.882Z,10.50
2023-05-02T22:47:23.943Z,11.10
2023-05-02T22:52:30.120Z,10.20
2023-05-02T22:57:33.163Z,13.70
2023-05-02T23:02:36.923Z,11.80
2023-05-02T23:07:40.317Z,12.30
2023-05-02T23:12:43.528Z,12.50
2023-05-02T23:17:46.600Z,14.30
2023-05-02T23:25:30.442Z,17.10
2023-05-02T23:30:33.814Z,15.30
2023-05-02T23:35:37.137Z,14.10
2023-05-02T23:40:40.123Z,14.00
2023-05-02T23:45:43.247Z,13.40
2023-05-02T23:50:46.400Z,14.30
2023-05-02T23:55:49.479Z,11.50
